Terminal Aerodrome Forecast
Issued by NWS

Home | Current Version | Previous Version | Text Only | Print | Product List | Glossary Off
Versions: 1 2 3 4 5 6 7 8 9 10 11 12 13 14 15 16 17 18 19 20 21 22 23 24 25 26

266
FTUS43 KABR 222324
TAFPIR
TAF
KPIR 222324Z 2300/2324 30008KT P6SM OVC012
     FM230700 VRB05KT 4SM BR SCT050
     FM231500 11010KT P6SM OVC050=

USA.gov is the U.S. government's official web portal to all federal, state and local government web resources and services.